Dennis Port, MA (02639)

11:53 PM EST on January 18, 2017 (GMT -0500)
KT1OK @ Yenom Rd, South Dennis | | Change Station

Elev 50 ft 41.67 °N, 70.15 °W | Updated 2 seconds ago

Overcast
Overcast
39.4 °F
Feels Like 39 °F
N
0.0
Wind Variable Wind from NNW
Gusts 0.0 mph

Today
High -- | Low -- °F
--% Chance of Precip.
Yesterday
High -- | Low -- °F
Precip. -- in
Pressure 29.96 in
Visibility 9.0 miles
Clouds Overcast 1400 ft
Windchill 39 °F
Dew Point 39 °F
Humidity 97%
Rainfall 0.25 in
Snow Depth Not available.
7:03 AM 4:39 PM
Waning Gibbous, 57% visible
METAR KHYA 190356Z AUTO 02003KT 9SM OVC014 04/03 A2996 RMK AO2 SLP145 T00390028 $
Pressure 29.96 in
Visibility 9.0 miles
Clouds Overcast 1400 ft
Windchill 39 °F
Dew Point 39 °F
Humidity 97%
Rainfall 0.25 in
Snow Depth Not available.
7:03 AM 4:39 PM
Waning Gibbous, 57% visible
METAR KHYA 190356Z AUTO 02003KT 9SM OVC014 04/03 A2996 RMK AO2 SLP145 T00390028 $

Get Your Daily Forecast Email!

Thanks for signing up!

Be on the lookout for a verification email in your inbox.

You'll start receiving the daily forecast at 8 AM.

×

10-Day Weather Forecast

Almanac

Astronomy

Jan. 18, 2017 Rise Set
Actual Time
Civil Twilight
Nautical Twilight
Astronomical Twilight
Moon
Length of Visible Light
Length of Day
Tomorrow will be .
, % of the Moon is Illuminated

Today's Extremes

State Highs State Lows

Community

WunderPhotos

Upload Photos

1,962,540 photos uploaded!

WunderBlog® & News

Nearby

Air Quality

  Air Quality AQ Index Pollutant
Not available.

Snow Depth

Station Depth Elevation

Earthquake Activity

City Distance Mag. Time & Date
Minimum magnitude displayed is 2.5.

Coastal Water Temperatures

Place Temperature

Stations

Nearby Weather Stations

Station Location Temp. Windchill Dew Point Humidity Wind Precip. Elev Updated Type
                   

Watches & Warnings

There are currently no watches in effect.